Time;durP1;ratioP1;P1;durP2;ratioP2;P2;SDS_P1;SDS_P2;PMS_P1;PMS_P2;Temp;Humidity;BMP_temperature;BMP_pressure;BME280_temperature;BME280_humidity;BME280_pressure;Samples;Min_cycle;Max_cycle;Signal;HPM_P1;HPM_P2
2022/06/25 00:01:28;;;;;;;6.30;3.80;;;;;;;20.71;48.42;100206.34;106468;1270;22471;-73
2022/06/25 00:03:55;;;;;;;5.50;3.90;;;;;;;20.67;48.51;100205.86;106305;1270;24060;-70
2022/06/25 00:06:22;;;;;;;7.80;4.10;;;;;;;20.65;48.68;100209.52;106351;1271;22621;-70
2022/06/25 00:08:53;;;;;;;8.80;4.10;;;;;;;20.60;48.80;100208.02;106629;1270;25383;-72
2022/06/25 00:14:08;;;;;;;5.00;4.50;;;;;;;20.61;49.12;100215.33;106314;1270;23994;-73
2022/06/25 00:16:35;;;;;;;3.90;3.50;;;;;;;20.60;49.07;100214.65;106355;1270;22589;-69
2022/06/25 00:19:02;;;;;;;5.30;3.90;;;;;;;20.58;49.08;100215.46;106401;1270;24457;-72
2022/06/25 00:21:30;;;;;;;5.00;4.10;;;;;;;20.51;49.05;100213.11;106334;1271;24751;-76
2022/06/25 00:23:56;;;;;;;7.00;3.40;;;;;;;20.50;49.18;100220.14;106422;1270;22564;-71
2022/06/25 00:26:22;;;;;;;6.60;4.10;;;;;;;20.48;49.30;100215.46;106048;1270;24626;-73
2022/06/25 00:28:49;;;;;;;5.70;3.90;;;;;;;20.45;49.45;100218.27;106325;1270;25274;-72
2022/06/25 00:31:15;;;;;;;5.20;4.00;;;;;;;20.45;49.68;100215.61;105779;1276;24401;-77
2022/06/25 00:33:42;;;;;;;6.10;4.30;;;;;;;20.46;49.68;100212.52;105777;1276;22593;-78
2022/06/25 00:36:08;;;;;;;7.10;4.00;;;;;;;20.47;49.77;100209.23;105792;1276;25360;-71
2022/06/25 00:38:34;;;;;;;7.10;4.00;;;;;;;20.46;49.76;100212.71;105621;1277;25389;-71
2022/06/25 00:41:01;;;;;;;4.30;3.90;;;;;;;20.44;49.77;100213.89;106003;1277;23928;-72
2022/06/25 00:43:27;;;;;;;5.30;3.90;;;;;;;20.42;49.85;100213.61;105952;1276;26649;-71
2022/06/25 00:45:53;;;;;;;6.10;4.70;;;;;;;20.40;49.86;100218.17;105885;1277;25281;-71
2022/06/25 00:48:20;;;;;;;6.20;4.30;;;;;;;20.35;49.98;100214.34;105652;1278;24274;-72
2022/06/25 00:50:46;;;;;;;6.30;4.10;;;;;;;20.28;50.13;100213.65;106159;1270;25316;-73
2022/06/25 00:53:15;;;;;;;6.30;3.70;;;;;;;20.19;50.17;100211.21;106189;1271;25390;-74
2022/06/25 00:55:47;;;;;;;7.50;4.30;;;;;;;20.10;50.53;100202.93;106475;1270;24227;-81
2022/06/25 00:58:19;;;;;;;7.80;4.10;;;;;;;20.08;50.55;100212.00;106623;1270;25739;-73
2022/06/25 01:00:46;;;;;;;4.30;3.90;;;;;;;20.05;50.62;100207.66;106324;1270;22604;-72
2022/06/25 01:03:12;;;;;;;4.90;4.00;;;;;;;20.03;50.85;100207.03;106195;1271;22551;-72
2022/06/25 01:05:38;;;;;;;7.00;4.30;;;;;;;20.03;50.86;100209.17;106290;1270;26658;-72
2022/06/25 01:08:06;;;;;;;4.90;4.40;;;;;;;20.03;51.02;100214.88;106251;1270;22649;-68
2022/06/25 01:10:32;;;;;;;5.30;4.00;;;;;;;20.02;51.13;100215.10;106486;1271;26645;-71
2022/06/25 01:12:58;;;;;;;6.90;4.30;;;;;;;19.99;51.17;100216.87;106764;1270;24155;-69
2022/06/25 01:15:25;;;;;;;7.00;4.60;;;;;;;19.93;51.19;100215.92;106722;1271;25284;-72
2022/06/25 01:17:52;;;;;;;4.90;4.40;;;;;;;19.89;51.40;100210.23;106180;1271;25344;-73
2022/06/25 01:20:23;;;;;;;4.70;4.20;;;;;;;19.84;51.53;100212.62;106158;1271;25232;-71
2022/06/25 01:22:50;;;;;;;5.00;4.20;;;;;;;19.82;51.52;100208.23;106166;1271;24268;-72
2022/06/25 01:25:16;;;;;;;8.20;4.30;;;;;;;19.75;51.61;100212.36;106088;1273;26825;-72
2022/06/25 01:27:43;;;;;;;4.60;4.10;;;;;;;19.72;51.74;100211.11;105814;1277;25451;-72
2022/06/25 01:30:11;;;;;;;4.70;4.10;;;;;;;19.68;51.94;100207.52;105933;1277;23953;-70
2022/06/25 01:32:37;;;;;;;4.20;3.80;;;;;;;19.67;52.06;100208.64;105740;1277;25265;-72
2022/06/25 01:35:05;;;;;;;5.00;4.00;;;;;;;19.68;51.96;100203.96;105989;1275;24309;-73
2022/06/25 01:37:33;;;;;;;6.30;4.10;;;;;;;19.68;52.08;100199.84;106014;1277;22546;-71
2022/06/25 01:40:00;;;;;;;5.20;4.30;;;;;;;19.68;52.09;100200.57;106163;1274;22593;-70
2022/06/25 01:45:12;;;;;;;5.30;4.50;;;;;;;19.55;52.22;100193.51;105990;1274;22620;-72
2022/06/25 01:47:39;;;;;;;4.50;3.90;;;;;;;19.51;52.42;100194.77;106318;1270;24235;-72
2022/06/25 01:50:09;;;;;;;6.70;4.30;;;;;;;19.49;52.28;100195.98;106180;1271;25565;-74
2022/06/25 01:52:35;;;;;;;6.10;3.50;;;;;;;19.48;52.36;100195.84;106030;1273;24234;-71
2022/06/25 01:55:02;;;;;;;6.80;4.20;;;;;;;19.45;52.27;100197.23;106059;1271;22718;-71
2022/06/25 01:57:29;;;;;;;4.60;4.10;;;;;;;19.45;52.37;100199.04;106022;1271;22907;-73
2022/06/25 01:59:56;;;;;;;4.80;3.90;;;;;;;19.41;52.43;100200.81;105978;1275;22552;-78
2022/06/25 02:02:22;;;;;;;4.90;4.10;;;;;;;19.38;52.53;100202.02;105941;1272;22570;-75
2022/06/25 02:04:50;;;;;;;5.70;3.70;;;;;;;19.41;52.62;100207.75;106303;1273;22568;-74
2022/06/25 02:07:16;;;;;;;10.00;4.30;;;;;;;19.44;52.49;100210.33;105662;1278;22554;-75
2022/06/25 02:09:42;;;;;;;4.60;4.20;;;;;;;19.42;52.59;100214.48;105712;1277;24288;-73
2022/06/25 02:12:09;;;;;;;5.70;4.10;;;;;;;19.38;52.79;100212.19;105724;1277;23542;-71
2022/06/25 02:14:36;;;;;;;3.80;3.50;;;;;;;19.36;52.79;100213.36;105646;1278;25241;-72
2022/06/25 02:17:02;;;;;;;4.00;3.70;;;;;;;19.36;52.82;100212.13;105647;1281;22542;-73
2022/06/25 02:19:29;;;;;;;5.90;3.80;;;;;;;19.36;52.81;100211.06;105681;1281;22569;-73
2022/06/25 02:21:56;;;;;;;4.40;4.00;;;;;;;19.37;52.96;100212.82;105839;1278;22623;-71
2022/06/25 02:24:22;;;;;;;5.10;3.80;;;;;;;19.36;52.81;100208.73;105705;1278;24452;-73
2022/06/25 02:26:48;;;;;;;4.60;3.80;;;;;;;19.35;52.87;100210.74;106286;1271;25506;-82
2022/06/25 02:29:14;;;;;;;4.70;3.70;;;;;;;19.29;53.01;100211.76;106412;1270;24035;-72
2022/06/25 02:31:40;;;;;;;6.00;3.70;;;;;;;19.25;53.03;100212.83;106131;1272;23982;-74
2022/06/25 02:34:07;;;;;;;4.00;3.60;;;;;;;19.22;53.30;100213.70;106214;1271;22560;-73
2022/06/25 02:36:33;;;;;;;6.30;3.80;;;;;;;19.21;53.32;100215.70;105883;1277;24312;-77
2022/06/25 02:39:03;;;;;;;4.30;3.50;;;;;;;19.21;53.42;100213.00;105765;1277;22560;-71
2022/06/25 02:41:29;;;;;;;6.70;3.90;;;;;;;19.28;53.33;100219.82;105701;1278;22532;-72
2022/06/25 02:43:55;;;;;;;4.50;3.70;;;;;;;19.29;53.32;100221.56;105784;1278;22550;-67
2022/06/25 02:46:33;;;;;;;4.10;3.80;;;;;;;19.28;53.31;100215.20;105862;1276;22636;-74
2022/06/25 02:49:01;;;;;;;7.30;3.80;;;;;;;19.27;53.30;100216.65;105870;1276;22546;-73
2022/06/25 02:51:27;;;;;;;6.80;3.50;;;;;;;19.28;53.33;100217.11;105709;1277;22569;-75
2022/06/25 02:53:55;;;;;;;4.50;3.80;;;;;;;19.27;53.36;100218.28;105908;1271;24445;-73
2022/06/25 02:59:08;;;;;;;4.30;3.90;;;;;;;19.27;53.60;100213.43;106067;1273;24092;-72
2022/06/25 03:01:37;;;;;;;4.20;3.40;;;;;;;19.30;53.57;100212.41;106443;1271;22546;-72
2022/06/25 03:04:04;;;;;;;4.20;3.50;;;;;;;19.29;53.59;100214.60;106489;1271;22636;-70
2022/06/25 03:06:30;;;;;;;4.10;3.70;;;;;;;19.27;53.62;100211.47;106039;1271;22577;-70
2022/06/25 03:08:56;;;;;;;5.20;4.40;;;;;;;19.30;53.79;100214.04;105971;1272;23935;-70
2022/06/25 03:11:23;;;;;;;5.10;4.10;;;;;;;19.26;53.83;100212.96;106139;1271;23930;-70
2022/06/25 03:13:49;;;;;;;4.60;4.00;;;;;;;19.25;54.07;100208.19;106057;1271;25330;-71
2022/06/25 03:16:16;;;;;;;4.20;3.50;;;;;;;19.27;54.13;100212.91;106096;1271;25305;-69
2022/06/25 03:18:43;;;;;;;4.30;3.80;;;;;;;19.29;54.24;100211.93;105956;1271;24331;-71
2022/06/25 03:21:36;;;;;;;5.40;4.00;;;;;;;19.30;54.30;100212.95;106079;1271;25274;-72
2022/06/25 03:24:04;;;;;;;4.90;4.10;;;;;;;19.32;54.31;100211.98;106025;1274;24287;-75
2022/06/25 03:26:31;;;;;;;5.30;4.10;;;;;;;19.32;54.35;100208.91;106036;1271;22566;-74
2022/06/25 03:28:58;;;;;;;4.70;3.90;;;;;;;19.32;54.34;100208.38;106159;1271;23157;-72
2022/06/25 03:31:25;;;;;;;6.10;3.90;;;;;;;19.32;54.34;100211.95;106142;1272;22555;-72
2022/06/25 03:33:52;;;;;;;4.10;3.70;;;;;;;19.33;54.31;100214.23;106079;1272;22619;-71
2022/06/25 03:36:51;;;;;;;4.20;3.80;;;;;;;19.35;54.41;100217.52;106124;1271;24298;-71
2022/06/25 03:39:17;;;;;;;6.60;3.70;;;;;;;19.36;54.41;100220.36;106040;1271;22536;-74
2022/06/25 03:41:44;;;;;;;5.20;3.50;;;;;;;19.36;54.46;100224.28;106513;1268;25290;-72
2022/06/25 03:44:36;;;;;;;6.00;4.10;;;;;;;19.37;54.46;100224.58;106408;1268;22614;-69
2022/06/25 03:47:12;;;;;;;5.10;4.20;;;;;;;19.37;54.52;100228.17;106424;1268;25235;-72
2022/06/25 03:49:38;;;;;;;4.80;3.60;;;;;;;19.36;54.52;100229.80;106351;1271;22702;-70
2022/06/25 03:52:08;;;;;;;6.70;3.60;;;;;;;19.36;54.64;100230.17;106342;1271;22719;-78
2022/06/25 03:54:38;;;;;;;4.20;3.50;;;;;;;19.35;54.72;100229.13;106339;1270;22572;-74
2022/06/25 03:57:04;;;;;;;3.90;3.50;;;;;;;19.37;54.69;100231.19;106374;1268;22585;-74
2022/06/25 03:59:42;;;;;;;4.00;3.60;;;;;;;19.37;54.72;100233.88;106288;1270;22524;-73
2022/06/25 04:02:19;;;;;;;4.00;3.60;;;;;;;19.41;54.85;100236.52;106414;1268;22518;-72
2022/06/25 04:05:10;;;;;;;4.80;3.90;;;;;;;19.45;54.78;100234.20;106384;1270;23081;-71
2022/06/25 04:07:37;;;;;;;3.90;3.60;;;;;;;19.48;54.68;100235.27;105986;1272;24268;-69
2022/06/25 04:10:05;;;;;;;6.00;3.10;;;;;;;19.47;54.75;100234.44;106872;1271;25263;-69
2022/06/25 04:12:32;;;;;;;4.30;3.40;;;;;;;19.48;54.87;100239.04;107014;1271;22546;-69
2022/06/25 04:14:58;;;;;;;4.30;3.80;;;;;;;19.50;54.94;100244.15;106078;1271;23844;-72
2022/06/25 04:17:24;;;;;;;3.50;3.10;;;;;;;19.50;54.79;100246.25;106194;1270;25445;-73
2022/06/25 04:19:51;;;;;;;3.50;3.20;;;;;;;19.52;54.86;100249.39;106044;1271;22655;-74
2022/06/25 04:22:17;;;;;;;3.80;3.10;;;;;;;19.55;54.99;100247.80;106331;1270;283959;-73
2022/06/25 04:24:44;;;;;;;3.80;3.10;;;;;;;19.57;54.91;100247.17;106407;1270;22551;-75
2022/06/25 04:29:03;;;;;;;3.80;3.50;;;;;;;19.61;54.93;100248.43;106564;1268;22540;-72
2022/06/25 04:29:58;;;;;;;7.60;3.40;;;;;;;19.63;54.82;100247.58;106395;1270;22561;-87
2022/06/25 04:32:24;;;;;;;5.70;3.30;;;;;;;19.67;54.70;100249.52;105827;1276;25265;-73
2022/06/25 04:35:16;;;;;;;3.30;3.10;;;;;;;19.72;54.65;100252.88;105451;1278;22572;-74
2022/06/25 04:37:44;;;;;;;3.20;2.80;;;;;;;19.75;54.69;100254.51;105915;1277;25218;-77
2022/06/25 04:40:13;;;;;;;4.10;3.50;;;;;;;19.78;54.73;100253.98;105882;1277;25178;-74
2022/06/25 04:42:40;;;;;;;3.60;3.30;;;;;;;19.81;54.71;100254.02;105790;1278;22564;-74
2022/06/25 04:45:07;;;;;;;5.30;3.60;;;;;;;19.86;54.83;100249.17;105767;1277;25461;-72
2022/06/25 04:47:39;;;;;;;3.90;3.50;;;;;;;19.88;54.65;100254.39;105933;1277;22543;-72
2022/06/25 04:50:43;;;;;;;3.80;3.40;;;;;;;19.92;54.70;100252.08;106031;1271;25359;-74
2022/06/25 04:53:11;;;;;;;4.80;3.30;;;;;;;19.94;54.72;100247.86;106364;1268;22709;-75
2022/06/25 04:55:37;;;;;;;3.90;3.20;;;;;;;19.98;54.76;100255.17;106168;1273;22716;-77
2022/06/25 04:58:03;;;;;;;5.00;3.40;;;;;;;20.02;54.78;100258.56;106209;1270;23062;-74
2022/06/25 05:00:49;;;;;;;3.90;3.50;;;;;;;20.04;54.68;100258.45;106146;1271;24496;-70
2022/06/25 05:03:17;;;;;;;5.90;3.90;;;;;;;20.07;54.60;100259.05;106362;1268;22721;-74
2022/06/25 05:06:06;;;;;;;6.40;4.90;;;;;;;20.10;54.64;100260.17;106148;1270;22498;-78
2022/06/25 05:08:33;;;;;;;12.60;8.90;;;;;;;20.10;54.48;100256.23;106239;1270;23571;-73
2022/06/25 05:10:59;;;;;;;4.20;3.80;;;;;;;20.15;54.61;100264.55;105715;1278;25439;-70
2022/06/25 05:13:25;;;;;;;4.20;3.50;;;;;;;20.18;54.47;100262.40;105742;1277;22519;-73
2022/06/25 05:15:52;;;;;;;5.10;3.90;;;;;;;20.23;54.02;100265.02;105497;1277;25448;-74
2022/06/25 05:18:19;;;;;;;5.10;3.40;;;;;;;20.27;54.26;100269.10;105795;1277;25578;-71
2022/06/25 05:20:45;;;;;;;5.00;3.60;;;;;;;20.31;54.18;100270.34;105947;1276;22668;-75
2022/06/25 05:23:13;;;;;;;3.90;3.40;;;;;;;20.36;54.16;100274.19;105851;1277;22585;-80
2022/06/25 05:25:41;;;;;;;5.50;3.20;;;;;;;20.40;53.96;100278.25;105696;1276;25317;-75
2022/06/25 05:28:08;;;;;;;4.60;3.30;;;;;;;20.45;53.91;100280.89;105921;1277;24330;-78
2022/06/25 05:30:35;;;;;;;5.70;3.60;;;;;;;20.49;53.79;100281.39;106443;1270;25721;-79
2022/06/25 05:33:02;;;;;;;4.20;3.60;;;;;;;20.55;53.68;100277.33;106307;1273;23920;-78
2022/06/25 05:35:28;;;;;;;4.10;3.20;;;;;;;20.60;53.39;100277.79;106304;1270;22576;-82
2022/06/25 05:37:54;;;;;;;4.00;3.40;;;;;;;20.65;53.36;100277.89;106146;1270;25345;-76
2022/06/25 05:40:21;;;;;;;3.60;3.30;;;;;;;20.71;53.22;100280.95;106170;1271;25526;-77
2022/06/25 05:42:47;;;;;;;3.80;3.50;;;;;;;20.75;53.03;100279.48;106286;1270;23923;-78
2022/06/25 05:45:13;;;;;;;7.50;3.40;;;;;;;20.81;52.75;100280.41;106302;1270;22662;-79
2022/06/25 05:47:40;;;;;;;4.50;2.90;;;;;;;20.87;52.62;100281.36;106241;1271;25454;-76
2022/06/25 05:50:07;;;;;;;5.30;3.40;;;;;;;20.91;52.36;100271.85;106246;1270;23087;-77
2022/06/25 05:52:33;;;;;;;3.60;3.30;;;;;;;20.96;52.19;100274.98;106259;1270;24388;-80
2022/06/25 05:55:00;;;;;;;4.90;3.20;;;;;;;21.02;52.10;100274.52;106089;1272;25438;-76
2022/06/25 05:57:26;;;;;;;3.20;2.80;;;;;;;21.07;52.16;100273.50;106121;1270;22691;-78
2022/06/25 05:59:53;;;;;;;4.80;3.30;;;;;;;21.13;52.03;100272.48;106106;1271;22733;-80
2022/06/25 06:02:19;;;;;;;5.90;3.60;;;;;;;21.17;51.92;100272.77;106167;1270;25350;-77
2022/06/25 06:04:45;;;;;;;3.90;3.20;;;;;;;21.22;51.90;100270.71;106124;1271;24523;-79
2022/06/25 06:07:12;;;;;;;5.70;3.20;;;;;;;21.27;51.99;100271.16;106191;1270;22579;-78
2022/06/25 06:09:38;;;;;;;3.40;3.00;;;;;;;21.32;51.92;100271.45;106278;1270;22561;-76
2022/06/25 06:12:05;;;;;;;3.90;3.30;;;;;;;21.39;51.77;100276.77;105822;1277;25388;-77
2022/06/25 06:14:31;;;;;;;3.60;3.30;;;;;;;21.45;51.87;100278.94;105921;1274;25950;-78
2022/06/25 06:16:57;;;;;;;6.10;3.20;;;;;;;21.49;51.75;100269.20;105902;1275;22541;-79
2022/06/25 06:19:23;;;;;;;4.30;3.60;;;;;;;21.55;51.54;100271.77;105929;1276;24246;-75
2022/06/25 06:21:50;;;;;;;4.10;3.70;;;;;;;21.60;51.32;100270.59;105962;1277;22570;-76
2022/06/25 06:24:16;;;;;;;4.80;3.20;;;;;;;21.66;51.14;100269.17;106032;1274;24237;-81
2022/06/25 06:26:42;;;;;;;6.90;3.20;;;;;;;21.70;50.81;100267.48;105993;1277;22548;-76
2022/06/25 06:29:08;;;;;;;8.40;3.40;;;;;;;21.76;50.36;100271.13;106072;1274;22541;-75
2022/06/25 06:31:34;;;;;;;4.90;3.40;;;;;;;21.82;50.16;100273.70;106098;1276;22572;-75
2022/06/25 06:34:01;;;;;;;6.70;2.80;;;;;;;21.88;50.04;100271.14;105798;1277;24234;-80
2022/06/25 06:36:27;;;;;;;3.20;2.90;;;;;;;21.94;49.83;100271.17;105848;1276;24234;-74
2022/06/25 06:38:53;;;;;;;4.90;2.90;;;;;;;22.01;49.50;100276.52;106429;1276;25396;-75
2022/06/25 06:41:19;;;;;;;3.90;2.90;;;;;;;22.07;49.36;100273.83;105618;1282;24895;-80
2022/06/25 06:43:46;;;;;;;3.70;2.70;;;;;;;22.12;49.11;100273.85;105351;1282;22683;-83
2022/06/25 06:46:13;;;;;;;4.50;3.00;;;;;;;22.20;49.15;100271.81;105247;1282;25264;-76
2022/06/25 06:48:40;;;;;;;4.10;2.70;;;;;;;22.27;48.58;100274.25;105333;1284;22586;-79
2022/06/25 06:51:07;;;;;;;3.40;3.10;;;;;;;22.34;48.52;100274.90;105517;1282;22861;-78
2022/06/25 06:53:34;;;;;;;4.70;3.60;;;;;;;22.39;48.76;100273.52;105685;1284;22576;-77
2022/06/25 06:56:00;;;;;;;3.50;3.10;;;;;;;22.47;48.28;100277.34;105883;1277;22637;-74
2022/06/25 06:58:29;;;;;;;3.20;2.80;;;;;;;22.54;48.09;100276.97;106002;1277;22496;-78
2022/06/25 07:00:59;;;;;;;4.80;3.30;;;;;;;22.59;48.06;100272.53;106188;1271;25421;-80
2022/06/25 07:03:25;;;;;;;3.70;2.90;;;;;;;22.70;47.52;100277.98;106122;1273;22785;-76
2022/06/25 07:05:56;;;;;;;5.00;2.90;;;;;;;22.80;47.10;100278.11;106115;1270;22625;-76
2022/06/25 07:08:22;;;;;;;3.30;2.90;;;;;;;22.88;46.87;100279.91;106247;1270;25257;-80
2022/06/25 07:10:48;;;;;;;5.60;2.60;;;;;;;22.97;46.23;100280.45;105992;1271;22554;-76
2022/06/25 07:13:15;;;;;;;2.50;2.30;;;;;;;23.04;46.27;100278.96;106068;1270;24485;-76
2022/06/25 07:15:41;;;;;;;3.30;3.00;;;;;;;23.11;46.35;100279.77;106036;1274;25276;-75
2022/06/25 07:18:07;;;;;;;2.50;2.30;;;;;;;23.19;46.14;100280.33;105921;1274;23226;-77
2022/06/25 07:20:34;;;;;;;3.40;2.60;;;;;;;23.26;45.63;100279.66;106076;1274;26696;-77
2022/06/25 07:23:00;;;;;;;4.30;2.70;;;;;;;23.36;45.25;100282.29;105903;1274;25268;-79
2022/06/25 07:25:27;;;;;;;3.00;2.70;;;;;;;23.42;44.74;100278.48;105905;1274;26676;-77
2022/06/25 07:27:54;;;;;;;4.40;2.20;;;;;;;23.53;44.57;100275.11;105960;1274;23930;-76
2022/06/25 07:30:20;;;;;;;3.20;2.10;;;;;;;23.63;43.80;100276.44;105987;1274;22649;-77
2022/06/25 07:32:46;;;;;;;3.90;2.00;;;;;;;23.73;43.69;100282.84;105885;1277;23002;-78
2022/06/25 07:35:12;;;;;;;6.60;2.70;;;;;;;23.81;42.74;100284.45;105862;1274;24240;-86
2022/06/25 07:37:40;;;;;;;3.60;2.30;;;;;;;23.91;42.73;100282.54;106085;1274;23984;-77
2022/06/25 07:40:08;;;;;;;3.20;2.30;;;;;;;24.00;42.94;100287.84;105979;1270;24540;-77
2022/06/25 07:42:35;;;;;;;3.50;2.50;;;;;;;24.09;42.14;100282.79;106274;1270;22556;-78
2022/06/25 07:45:01;;;;;;;3.20;2.50;;;;;;;24.17;41.98;100283.71;106076;1270;22535;-78
2022/06/25 07:47:27;;;;;;;4.50;2.30;;;;;;;24.24;41.69;100280.88;106156;1270;24239;-76
2022/06/25 07:52:39;;;;;;;2.80;2.60;;;;;;;24.44;40.21;100285.82;106336;1270;22540;-74
2022/06/25 07:55:05;;;;;;;3.80;2.50;;;;;;;24.51;39.81;100284.48;106210;1270;25338;-76
2022/06/25 07:57:32;;;;;;;2.60;2.30;;;;;;;24.58;40.08;100275.84;106322;1270;22540;-77
2022/06/25 07:59:59;;;;;;;2.80;2.30;;;;;;;24.67;40.39;100275.94;106205;1270;25338;-80
2022/06/25 08:02:26;;;;;;;3.00;2.40;;;;;;;24.78;40.24;100268.36;105953;1271;22729;-79
2022/06/25 08:04:52;;;;;;;4.10;2.20;;;;;;;24.89;39.75;100275.17;106032;1275;24278;-77
2022/06/25 08:07:19;;;;;;;2.80;2.10;;;;;;;25.01;39.15;100274.86;105814;1276;22538;-76
2022/06/25 08:09:45;;;;;;;2.60;2.40;;;;;;;25.11;38.80;100277.58;105824;1277;22577;-76
2022/06/25 08:12:11;;;;;;;3.50;2.20;;;;;;;25.19;38.76;100269.42;105895;1275;22531;-76
2022/06/25 08:14:38;;;;;;;2.40;1.80;;;;;;;25.31;38.98;100268.56;105865;1274;22807;-77
2022/06/25 08:17:04;;;;;;;4.10;2.30;;;;;;;25.43;38.37;100268.94;105755;1275;22546;-76
2022/06/25 08:19:31;;;;;;;4.50;2.40;;;;;;;25.54;38.16;100267.42;105909;1276;24838;-78
2022/06/25 08:21:57;;;;;;;4.90;2.30;;;;;;;25.66;38.56;100260.46;105985;1274;24446;-78
2022/06/25 08:24:24;;;;;;;4.40;2.00;;;;;;;25.78;38.29;100258.80;106411;1270;25508;-76
2022/06/25 08:26:50;;;;;;;2.50;2.30;;;;;;;25.88;37.95;100258.33;106314;1270;25337;-77
2022/06/25 08:29:16;;;;;;;2.80;2.60;;;;;;;26.00;37.83;100257.90;106168;1270;25427;-75
2022/06/25 08:31:42;;;;;;;4.90;2.00;;;;;;;26.13;37.62;100256.05;106091;1270;22578;-78
2022/06/25 08:34:09;;;;;;;2.10;1.90;;;;;;;26.23;37.36;100257.77;106262;1270;24214;-79
2022/06/25 08:36:35;;;;;;;2.90;2.10;;;;;;;26.33;37.15;100259.77;106078;1270;25538;-79
2022/06/25 08:39:01;;;;;;;2.30;2.10;;;;;;;26.40;36.93;100257.77;106160;1270;25532;-78
2022/06/25 08:41:28;;;;;;;2.40;2.20;;;;;;;26.51;37.03;100261.45;106193;1270;24339;-78
2022/06/25 08:43:54;;;;;;;2.20;1.90;;;;;;;26.60;36.76;100259.62;106121;1270;22560;-78
2022/06/25 08:46:20;;;;;;;2.80;1.90;;;;;;;26.71;36.73;100254.30;106402;1270;23830;-77
2022/06/25 08:48:50;;;;;;;2.10;1.90;;;;;;;26.80;36.42;100257.52;106266;1270;22699;-78
2022/06/25 08:51:18;;;;;;;6.50;2.50;;;;;;;26.89;36.45;100256.60;106085;1270;24272;-76
2022/06/25 08:53:45;;;;;;;1.90;1.70;;;;;;;27.05;36.24;100253.05;106107;1270;24231;-78
2022/06/25 08:56:12;;;;;;;2.20;2.00;;;;;;;27.20;35.95;100251.69;105955;1270;22555;-77
2022/06/25 08:58:44;;;;;;;2.40;1.70;;;;;;;27.33;35.33;100254.75;106020;1270;24219;-79
2022/06/25 09:01:11;;;;;;;4.60;2.10;;;;;;;27.44;35.09;100254.77;106068;1271;24434;-77
2022/06/25 09:03:39;;;;;;;2.80;2.10;;;;;;;27.56;35.28;100253.23;105995;1273;23941;-78
2022/06/25 09:06:14;;;;;;;3.00;2.30;;;;;;;27.72;35.34;100252.90;105963;1271;25495;-75
2022/06/25 09:08:42;;;;;;;6.10;2.10;;;;;;;27.84;35.15;100253.01;106056;1273;25527;-78
2022/06/25 09:11:09;;;;;;;1.90;1.70;;;;;;;27.95;34.78;100250.23;106036;1271;24106;-75
2022/06/25 09:13:35;;;;;;;5.40;1.80;;;;;;;28.05;34.55;100253.73;106265;1270;22546;-77
2022/06/25 09:16:02;;;;;;;3.60;1.90;;;;;;;28.12;34.19;100245.91;106362;1270;24385;-80
2022/06/25 09:18:33;;;;;;;2.00;1.90;;;;;;;28.22;33.85;100250.17;106305;1270;23965;-79
2022/06/25 09:21:04;;;;;;;3.20;2.00;;;;;;;28.30;33.56;100254.38;106601;1268;22571;-78
2022/06/25 09:23:35;;;;;;;6.00;2.10;;;;;;;28.33;32.91;100256.98;106298;1274;25395;-78
2022/06/25 09:26:06;;;;;;;2.60;1.90;;;;;;;28.35;32.39;100252.54;105989;1274;25241;-77
2022/06/25 09:28:35;;;;;;;2.70;2.00;;;;;;;28.39;32.89;100248.16;106007;1275;25519;-80
2022/06/25 09:31:02;;;;;;;2.20;1.70;;;;;;;28.53;33.04;100259.64;105762;1276;24198;-76
2022/06/25 09:33:34;;;;;;;3.70;1.90;;;;;;;28.63;32.96;100261.63;105814;1276;24389;-79
2022/06/25 09:36:01;;;;;;;2.40;2.20;;;;;;;28.69;32.46;100264.96;105911;1274;24328;-78
2022/06/25 09:38:27;;;;;;;4.60;2.10;;;;;;;28.74;32.58;100257.85;105686;1276;23123;-77
2022/06/25 09:41:00;;;;;;;3.90;2.00;;;;;;;28.83;32.53;100253.20;105754;1277;25436;-77
2022/06/25 09:43:37;;;;;;;2.00;1.80;;;;;;;28.94;32.24;100250.45;105983;1276;24279;-78
2022/06/25 09:46:05;;;;;;;2.50;1.90;;;;;;;29.08;31.99;100253.95;105841;1274;25348;-79
2022/06/25 09:48:34;;;;;;;1.80;1.70;;;;;;;29.11;31.36;100255.65;105960;1271;23153;-77
2022/06/25 09:51:05;;;;;;;2.00;1.80;;;;;;;29.17;31.32;100254.79;106180;1271;22623;-77
2022/06/25 09:53:34;;;;;;;3.40;1.70;;;;;;;29.25;31.48;100259.85;106184;1271;22486;-79
2022/06/25 09:56:03;;;;;;;2.40;1.70;;;;;;;29.30;31.17;100254.35;106179;1271;22545;-79
2022/06/25 09:58:31;;;;;;;2.30;1.70;;;;;;;29.39;31.08;100252.42;106177;1270;22926;-79
2022/06/25 10:00:58;;;;;;;2.50;1.70;;;;;;;29.46;31.12;100250.52;106137;1272;24320;-78
2022/06/25 10:03:25;;;;;;;2.80;1.70;;;;;;;29.57;31.13;100250.68;105981;1273;22706;-83
2022/06/25 10:05:53;;;;;;;3.90;2.10;;;;;;;29.70;31.25;100246.73;106020;1271;25653;-77
2022/06/25 10:08:21;;;;;;;2.30;1.80;;;;;;;29.79;30.98;100245.38;106148;1271;23965;-78
2022/06/25 10:10:51;;;;;;;3.50;1.90;;;;;;;29.91;30.71;100245.42;106289;1270;25414;-77
2022/06/25 10:13:17;;;;;;;5.20;2.00;;;;;;;29.93;29.95;100248.82;106124;1270;24298;-77
2022/06/25 10:15:45;;;;;;;2.30;1.90;;;;;;;29.92;30.24;100243.66;106227;1270;25332;-78
2022/06/25 10:18:12;;;;;;;4.90;1.90;;;;;;;30.01;30.17;100238.66;106330;1270;22507;-77
2022/06/25 10:20:40;;;;;;;3.70;1.90;;;;;;;30.11;30.44;100241.86;106420;1270;23971;-77
2022/06/25 10:23:09;;;;;;;1.90;1.70;;;;;;;30.16;29.90;100235.59;106321;1271;22543;-77
2022/06/25 10:25:36;;;;;;;2.50;1.90;;;;;;;30.18;30.06;100245.44;105975;1270;22892;-77
2022/06/25 10:28:23;;;;;;;2.20;1.70;;;;;;;30.26;29.80;100241.96;106068;1270;22957;-77
2022/06/25 10:30:52;;;;;;;3.00;2.00;;;;;;;30.32;29.62;100234.48;106055;1270;25254;-79
2022/06/25 10:33:21;;;;;;;2.70;1.50;;;;;;;30.43;29.60;100235.48;105519;1278;24516;-77
2022/06/25 10:35:50;;;;;;;1.80;1.60;;;;;;;30.60;29.64;100232.17;105805;1278;24332;-77
2022/06/25 10:38:18;;;;;;;2.30;2.00;;;;;;;30.76;28.96;100225.95;105591;1278;22562;-79
2022/06/25 10:40:50;;;;;;;2.30;1.80;;;;;;;30.85;28.78;100223.42;105660;1277;25320;-80
2022/06/25 10:43:46;;;;;;;2.00;1.90;;;;;;;31.00;28.37;100219.96;105721;1277;22689;-77
2022/06/25 10:46:29;;;;;;;1.90;1.80;;;;;;;31.17;28.26;100217.04;105724;1277;22680;-79
2022/06/25 10:49:07;;;;;;;2.10;1.70;;;;;;;31.37;28.37;100215.52;105958;1277;23126;-78
2022/06/25 10:51:46;;;;;;;2.50;1.70;;;;;;;31.56;28.50;100215.44;105533;1280;25292;-79
2022/06/25 10:54:14;;;;;;;1.80;1.70;;;;;;;31.71;27.85;100220.77;105446;1281;22707;-81
2022/06/25 10:56:46;;;;;;;2.10;1.80;;;;;;;31.82;27.53;100215.09;105825;1281;22542;-76
2022/06/25 10:59:35;;;;;;;1.80;1.60;;;;;;;31.92;27.47;100208.89;106046;1276;26527;-79
2022/06/25 11:02:06;;;;;;;5.80;1.60;;;;;;;32.09;27.33;100214.77;105893;1276;25259;-80
2022/06/25 11:04:34;;;;;;;2.30;1.50;;;;;;;32.06;26.78;100215.50;105933;1276;22596;-80
2022/06/25 11:07:18;;;;;;;3.10;1.80;;;;;;;32.15;27.12;100218.39;105957;1276;22544;-78
2022/06/25 11:09:52;;;;;;;1.80;1.70;;;;;;;32.25;26.70;100214.27;106150;1276;23704;-78
2022/06/25 11:12:18;;;;;;;2.40;1.50;;;;;;;32.35;26.70;100208.13;105956;1276;24251;-79
2022/06/25 11:14:49;;;;;;;2.30;1.70;;;;;;;32.41;26.48;100206.73;106174;1270;22575;-78
2022/06/25 11:17:15;;;;;;;2.10;1.70;;;;;;;32.53;26.67;100212.62;106478;1272;22701;-80
2022/06/25 11:19:42;;;;;;;2.70;1.90;;;;;;;32.56;26.25;100212.91;106229;1270;22872;-81
2022/06/25 11:22:08;;;;;;;3.00;1.90;;;;;;;32.60;26.19;100211.37;106212;1271;22544;-80
2022/06/25 11:24:34;;;;;;;2.00;1.90;;;;;;;32.70;26.45;100213.80;106103;1273;22576;-77
2022/06/25 11:29:51;;;;;;;3.40;2.20;;;;;;;33.05;26.13;100209.94;106107;1271;24251;-79
2022/06/25 11:32:26;;;;;;;2.80;1.80;;;;;;;33.10;25.58;100210.25;106172;1271;22718;-77
2022/06/25 11:35:02;;;;;;;4.80;1.90;;;;;;;33.13;25.61;100202.83;105989;1271;24272;-79
2022/06/25 11:37:31;;;;;;;2.20;2.00;;;;;;;33.30;25.50;100209.02;105965;1273;23145;-80